createdAt,value
2019-04-14T00:00:58.298Z,1016.04
2019-04-14T00:01:58.804Z,1016.00
2019-04-14T00:02:58.293Z,1016.04
2019-04-14T00:03:58.711Z,1016.01
2019-04-14T00:04:59.384Z,1016.07
2019-04-14T00:05:58.375Z,1016.03
2019-04-14T00:06:59.148Z,1016.06
2019-04-14T00:07:58.223Z,1016.08
2019-04-14T00:08:58.640Z,1016.10
2019-04-14T00:09:58.514Z,1016.12
2019-04-14T00:10:59.318Z,1016.13
2019-04-14T00:11:59.090Z,1016.12
2019-04-14T00:12:58.166Z,1016.09
2019-04-14T00:13:58.855Z,1016.09
2019-04-14T00:14:58.147Z,1016.05
2019-04-14T00:15:58.914Z,1016.04
2019-04-14T00:16:58.116Z,1016.03
2019-04-14T00:17:58.983Z,1016.02
2019-04-14T00:18:58.099Z,1016.02
2019-04-14T00:19:58.787Z,1016.00
2019-04-14T00:20:58.062Z,1015.98
2019-04-14T00:21:58.665Z,1015.97
2019-04-14T00:22:58.052Z,1015.98
2019-04-14T00:23:58.832Z,1015.93
2019-04-14T00:24:58.017Z,1015.94
2019-04-14T00:25:58.656Z,1015.93
2019-04-14T00:26:57.992Z,1015.90
2019-04-14T00:27:58.609Z,1015.96
2019-04-14T00:28:58.053Z,1015.93
2019-04-14T00:29:58.988Z,1015.97
2019-04-14T00:30:57.949Z,1015.94
2019-04-14T00:31:58.799Z,1015.98
2019-04-14T00:32:57.921Z,1015.96
2019-04-14T00:33:58.572Z,1015.96
2019-04-14T00:34:57.896Z,1015.99
2019-04-14T00:35:58.089Z,1015.98
2019-04-14T00:36:58.847Z,1015.96
2019-04-14T00:37:59.450Z,1015.89
2019-04-14T00:38:58.501Z,1015.88
2019-04-14T00:39:57.835Z,1015.89
2019-04-14T00:40:58.322Z,1015.93
2019-04-14T00:42:01.369Z,1015.93
2019-04-14T00:42:58.173Z,1015.89
2019-04-14T00:43:57.783Z,1015.91
2019-04-14T00:44:58.074Z,1015.90
2019-04-14T00:46:00.542Z,1015.86
2019-04-14T00:46:58.185Z,1015.88
2019-04-14T00:48:03.453Z,1015.92
2019-04-14T00:48:58.202Z,1015.89
2019-04-14T00:49:57.724Z,1015.87
2019-04-14T00:50:58.122Z,1015.89
2019-04-14T00:51:57.704Z,1015.84
2019-04-14T00:52:58.640Z,1015.84
2019-04-14T00:53:57.990Z,1015.85
2019-04-14T00:54:58.681Z,1015.90
2019-04-14T00:55:57.662Z,1015.88
2019-04-14T00:56:58.508Z,1015.93
2019-04-14T00:57:57.623Z,1015.92
2019-04-14T00:58:58.256Z,1015.91
2019-04-14T00:59:57.595Z,1015.93
2019-04-14T01:00:57.993Z,1015.88
2019-04-14T01:01:57.570Z,1015.90
2019-04-14T01:02:57.984Z,1015.90
2019-04-14T01:03:57.561Z,1015.88
2019-04-14T01:04:57.748Z,1015.86
2019-04-14T01:05:57.526Z,1015.91
2019-04-14T01:06:57.685Z,1015.93
2019-04-14T01:07:58.691Z,1015.91
2019-04-14T01:08:57.589Z,1015.91
2019-04-14T01:09:57.570Z,1015.92
2019-04-14T01:10:58.339Z,1015.92
2019-04-14T01:11:57.464Z,1015.92
2019-04-14T01:12:58.185Z,1015.94
2019-04-14T01:13:57.429Z,1015.95
2019-04-14T01:14:58.211Z,1015.98
2019-04-14T01:16:03.441Z,1015.98
2019-04-14T01:16:58.024Z,1015.97
2019-04-14T01:17:57.398Z,1015.95
2019-04-14T01:18:58.075Z,1015.93
2019-04-14T01:19:57.359Z,1015.93
2019-04-14T01:20:57.863Z,1015.90
2019-04-14T01:21:57.343Z,1015.89
2019-04-14T01:22:57.509Z,1015.90
2019-04-14T01:23:57.315Z,1015.90
2019-04-14T01:24:57.541Z,1015.86
2019-04-14T01:25:58.377Z,1015.91
2019-04-14T01:26:57.288Z,1015.92
2019-04-14T01:27:58.207Z,1015.92
2019-04-14T01:28:57.259Z,1015.91
2019-04-14T01:29:58.136Z,1015.90
2019-04-14T01:30:57.234Z,1015.95
2019-04-14T01:31:57.926Z,1015.94
2019-04-14T01:32:57.206Z,1015.92
2019-04-14T01:33:57.620Z,1016.00
2019-04-14T01:34:57.188Z,1016.01
2019-04-14T01:35:57.413Z,1015.98
2019-04-14T01:36:58.444Z,1016.02
2019-04-14T01:37:57.273Z,1015.97
2019-04-14T01:38:58.091Z,1015.99
2019-04-14T01:39:57.129Z,1015.98
2019-04-14T01:40:57.753Z,1016.03
2019-04-14T01:41:57.108Z,1015.99
2019-04-14T01:42:57.335Z,1016.02
2019-04-14T01:43:58.137Z,1016.02
2019-04-14T01:44:57.127Z,1015.98
2019-04-14T01:46:06.052Z,1016.03
2019-04-14T01:46:57.047Z,1016.00
2019-04-14T01:47:57.553Z,1016.02
2019-04-14T01:48:57.025Z,1016.04
2019-04-14T01:49:57.355Z,1016.03
2019-04-14T01:50:57.000Z,1016.07
2019-04-14T01:54:43.384Z,1016.04
2019-04-14T01:59:37.481Z,1016.05
2019-04-14T02:03:41.018Z,1016.02
2019-04-14T02:07:31.895Z,1016.04
2019-04-14T02:08:30.775Z,1016.05
2019-04-14T02:12:45.734Z,1016.06
2019-04-14T02:14:40.841Z,1016.04
2019-04-14T02:17:22.065Z,1016.05
2019-04-14T02:21:43.559Z,1016.04
2019-04-14T02:26:19.662Z,1016.03
2019-04-14T02:27:18.821Z,1016.03
2019-04-14T02:29:12.144Z,1015.98
2019-04-14T02:30:15.868Z,1016.00
2019-04-14T02:31:24.798Z,1016.02
2019-04-14T02:33:39.005Z,1016.05
2019-04-14T02:35:47.297Z,1015.98
2019-04-14T02:36:37.877Z,1016.00
2019-04-14T02:37:45.145Z,1016.03
2019-04-14T02:38:52.647Z,1016.00
2019-04-14T02:39:39.061Z,1016.06
2019-04-14T02:43:37.640Z,1016.03
2019-04-14T02:44:38.236Z,1016.06
2019-04-14T02:48:47.932Z,1016.10
2019-04-14T02:50:38.673Z,1016.06
2019-04-14T02:51:33.597Z,1016.07
2019-04-14T02:52:35.464Z,1016.06
2019-04-14T02:53:45.384Z,1016.07
2019-04-14T02:54:44.997Z,1016.05
2019-04-14T02:55:44.828Z,1016.07
2019-04-14T02:56:35.729Z,1016.10
2019-04-14T02:59:45.098Z,1016.11
2019-04-14T03:01:42.205Z,1016.11
2019-04-14T03:04:37.430Z,1016.12
2019-04-14T03:05:49.591Z,1016.14
2019-04-14T03:06:38.538Z,1016.12
2019-04-14T03:07:38.434Z,1016.12
2019-04-14T03:08:41.368Z,1016.13
2019-04-14T03:09:42.458Z,1016.13
2019-04-14T03:11:44.438Z,1016.13
2019-04-14T03:13:35.131Z,1016.13
2019-04-14T03:14:41.647Z,1016.13
2019-04-14T03:15:41.596Z,1016.15
2019-04-14T03:16:39.362Z,1016.11
2019-04-14T03:17:39.215Z,1016.10
2019-04-14T03:19:48.161Z,1016.11
2019-04-14T03:20:35.424Z,1016.15
2019-04-14T03:21:34.352Z,1016.07
2019-04-14T03:24:31.721Z,1016.15
2019-04-14T03:25:27.741Z,1016.10
2019-04-14T03:29:16.600Z,1016.11
2019-04-14T03:30:30.329Z,1016.12
2019-04-14T03:43:09.924Z,1016.14
